Weather Underground Historische gegevens

Dagelijkse Samenvatting juni 20, 2018 Eenheden:  Metrisch    Engels   Beide
« Vorige Dag
Volgende Dag »
Dagelijkse Wekelijkse Maandelijkse Jaarlijkse Aangepaste
  Huidig: Hoog: Laag: Gemiddeld:
Temperatuur: -9.1 °C -17.8 °C -10.6 °C -10.1 °C
Dauwpunt: -40.4 °C -17.8 °C -41.3 °C -40.1 °C
Vochtigheid: 1 % Humidity % 1 % 1 %
Wind snelheid: 2.6 km/h 0 km/h 0 km/h 2.9 km/h
Windvlaag: 12.9 km/h 0 km/h - -
Wind:SSW - - SSW
Luchtdruk: 34550.7 hPa 0 hPa 34550.7 hPa -
Neerslag: 0 mm      
Historical Graphs
 
 
Tabel voor juni 20, 2018
Tijd Temperatuur Dauwpunt Luchtdruk Wind Wind snelheid Windvlaag Vochtigheid Regenval per uur
-17.8 °C -17.8 °C 0 hPa Calm     Humidity % 0 mm
00:00 -8.9 °C -40.3 °C 34621.9 hPa Calm   2.6 km/h 1 % 0 mm
00:15 -8.9 °C -40.3 °C 34621.9 hPa Calm   2.6 km/h 1 % 0 mm
00:30 -9 °C -40.3 °C 34618.5 hPa Calm     1 % 0 mm
00:45 -9.2 °C -40.4 °C 34608.3 hPa SSW 2.6 km/h 5.1 km/h 1 % 0 mm
01:00 -9.3 °C -40.5 °C 34608.3 hPa Calm   5.1 km/h 1 % 0 mm
01:15 -9.5 °C -40.6 °C 34608.3 hPa Calm     1 % 0 mm
01:30 -9.6 °C -40.7 °C 34601.5 hPa SSW 5.1 km/h 10.3 km/h 1 % 0 mm
01:45 -9.7 °C -40.8 °C 34608.3 hPa Calm   7.7 km/h 1 % 0 mm
02:00 -9.9 °C -40.8 °C 34604.9 hPa Calm   7.7 km/h 1 % 0 mm
02:15 -10.1 °C -40.9 °C 34601.5 hPa Calm   2.6 km/h 1 % 0 mm
02:30 -10.1 °C -41 °C 34594.8 hPa Calm   5.1 km/h 1 % 0 mm
02:45 -10.2 °C -41.1 °C 34594.8 hPa SSW 2.6 km/h 7.7 km/h 1 % 0 mm
03:00 -10.3 °C -41.2 °C 34591.4 hPa SSW 5.1 km/h 5.1 km/h 1 % 0 mm
03:15 -10.4 °C -41.2 °C 34581.2 hPa Calm   7.7 km/h 1 % 0 mm
03:30 -10.5 °C -41.2 °C 34577.8 hPa SSW 2.6 km/h 7.7 km/h 1 % 0 mm
03:45 -10.5 °C -41.2 °C 34567.7 hPa SSW 10.3 km/h 10.3 km/h 1 % 0 mm
04:00 -10.5 °C -41.2 °C 34571.1 hPa SSW 2.6 km/h 10.3 km/h 1 % 0 mm
04:15 -10.5 °C -41.3 °C 34571.1 hPa SSW 5.1 km/h 12.9 km/h 1 % 0 mm
04:30 -10.6 °C -41.3 °C 34571.1 hPa SSW 5.1 km/h 10.3 km/h 1 % 0 mm
04:45 -10.6 °C -41.3 °C 34571.1 hPa Calm   7.7 km/h 1 % 0 mm
05:00 -10.5 °C -41.2 °C 34560.9 hPa SSW 5.1 km/h 10.3 km/h 1 % 0 mm
05:15 -10.4 °C -41.2 °C 34560.9 hPa SSW 7.7 km/h 12.9 km/h 1 % 0 mm
05:30 -10.3 °C -41.1 °C 34557.5 hPa SSW 5.1 km/h 12.9 km/h 1 % 0 mm
05:45 -10.1 °C -40.9 °C 34560.9 hPa Calm     1 % 0 mm
06:00 -9.7 °C -40.7 °C 34557.5 hPa SSW 5.1 km/h 7.7 km/h 1 % 0 mm
06:15 -9.5 °C -40.6 °C 34557.5 hPa Calm   7.7 km/h 1 % 0 mm
06:30 -9.4 °C -40.6 °C 34554.1 hPa SSW 7.7 km/h 12.9 km/h 1 % 0 mm
06:45 -9.4 °C -40.6 °C 34554.1 hPa South 5.1 km/h 7.7 km/h 1 % 0 mm
07:00 -9.2 °C -40.4 °C 34554.1 hPa South 10.3 km/h 15.6 km/h 1 % 0 mm
07:15 -9.1 °C -40.4 °C 34550.7 hPa SSW 2.6 km/h 12.9 km/h 1 % 0 mm
Gegevens verzameld door Weather Underground - 2.75 mb

Script ontwikkeld door  Jim McMurry - jmcmurry@mwt.net Aangepast voor de template door  Wim van der Kuil - Leuven-Template.eu